sensor_id;sensor_type;location;lat;lon;timestamp;P1;durP1;ratioP1;P2;durP2;ratioP2
2652;SDS011;1336;48.692;9.144;2023-11-19T06:00:07;0.80;;;0.50;;
2652;SDS011;1336;48.692;9.144;2023-11-19T06:01:03;0.70;;;0.50;;
2652;SDS011;1336;48.692;9.144;2023-11-19T06:01:57;1.23;;;0.55;;
2652;SDS011;1336;48.692;9.144;2023-11-19T06:02:48;0.60;;;0.40;;
2652;SDS011;1336;48.692;9.144;2023-11-19T06:03:39;0.80;;;0.50;;
2652;SDS011;1336;48.692;9.144;2023-11-19T06:04:30;0.70;;;0.50;;
2652;SDS011;1336;48.692;9.144;2023-11-19T06:05:22;0.60;;;0.40;;
2652;SDS011;1336;48.692;9.144;2023-11-19T06:06:13;1.00;;;0.60;;
2652;SDS011;1336;48.692;9.144;2023-11-19T06:07:05;0.70;;;0.60;;
2652;SDS011;1336;48.692;9.144;2023-11-19T06:07:55;0.80;;;0.70;;
2652;SDS011;1336;48.692;9.144;2023-11-19T06:08:47;0.80;;;0.70;;
2652;SDS011;1336;48.692;9.144;2023-11-19T06:09:40;1.20;;;0.80;;
2652;SDS011;1336;48.692;9.144;2023-11-19T06:10:31;0.90;;;0.80;;
2652;SDS011;1336;48.692;9.144;2023-11-19T06:11:22;1.00;;;0.90;;
2652;SDS011;1336;48.692;9.144;2023-11-19T06:12:16;1.00;;;0.90;;
2652;SDS011;1336;48.692;9.144;2023-11-19T06:13:07;1.30;;;0.70;;
2652;SDS011;1336;48.692;9.144;2023-11-19T06:14:00;1.00;;;0.65;;
2652;SDS011;1336;48.692;9.144;2023-11-19T06:14:50;0.70;;;0.60;;
2652;SDS011;1336;48.692;9.144;2023-11-19T06:15:43;0.77;;;0.60;;
2652;SDS011;1336;48.692;9.144;2023-11-19T06:16:34;0.70;;;0.50;;
2652;SDS011;1336;48.692;9.144;2023-11-19T06:17:26;1.75;;;0.60;;
2652;SDS011;1336;48.692;9.144;2023-11-19T06:18:17;2.70;;;0.60;;
2652;SDS011;1336;48.692;9.144;2023-11-19T06:19:09;0.70;;;0.50;;
2652;SDS011;1336;48.692;9.144;2023-11-19T06:20:02;0.90;;;0.60;;
2652;SDS011;1336;48.692;9.144;2023-11-19T06:20:54;0.95;;;0.60;;
2652;SDS011;1336;48.692;9.144;2023-11-19T06:21:45;0.90;;;0.80;;
2652;SDS011;1336;48.692;9.144;2023-11-19T06:22:36;0.97;;;0.70;;
2652;SDS011;1336;48.692;9.144;2023-11-19T06:23:27;1.57;;;0.70;;
2652;SDS011;1336;48.692;9.144;2023-11-19T06:24:19;0.93;;;0.70;;
2652;SDS011;1336;48.692;9.144;2023-11-19T06:25:09;0.80;;;0.60;;
2652;SDS011;1336;48.692;9.144;2023-11-19T06:26:02;0.80;;;0.60;;
2652;SDS011;1336;48.692;9.144;2023-11-19T06:26:53;1.90;;;0.68;;
2652;SDS011;1336;48.692;9.144;2023-11-19T06:27:45;1.35;;;0.60;;
2652;SDS011;1336;48.692;9.144;2023-11-19T06:28:35;1.20;;;0.73;;
2652;SDS011;1336;48.692;9.144;2023-11-19T06:29:26;0.87;;;0.60;;
2652;SDS011;1336;48.692;9.144;2023-11-19T06:30:18;0.70;;;0.50;;
2652;SDS011;1336;48.692;9.144;2023-11-19T06:31:11;0.70;;;0.57;;
2652;SDS011;1336;48.692;9.144;2023-11-19T06:32:06;0.93;;;0.68;;
2652;SDS011;1336;48.692;9.144;2023-11-19T06:32:58;0.77;;;0.65;;
2652;SDS011;1336;48.692;9.144;2023-11-19T06:33:49;0.80;;;0.63;;
2652;SDS011;1336;48.692;9.144;2023-11-19T06:34:41;0.77;;;0.60;;
2652;SDS011;1336;48.692;9.144;2023-11-19T06:35:33;0.80;;;0.65;;
2652;SDS011;1336;48.692;9.144;2023-11-19T06:36:26;0.80;;;0.70;;
2652;SDS011;1336;48.692;9.144;2023-11-19T06:37:17;0.90;;;0.60;;
2652;SDS011;1336;48.692;9.144;2023-11-19T06:38:09;0.90;;;0.70;;
2652;SDS011;1336;48.692;9.144;2023-11-19T06:39:00;2.65;;;0.70;;
2652;SDS011;1336;48.692;9.144;2023-11-19T06:39:52;0.70;;;0.60;;
2652;SDS011;1336;48.692;9.144;2023-11-19T06:40:43;1.43;;;0.67;;
2652;SDS011;1336;48.692;9.144;2023-11-19T06:41:35;0.80;;;0.55;;
2652;SDS011;1336;48.692;9.144;2023-11-19T06:42:28;0.90;;;0.70;;
2652;SDS011;1336;48.692;9.144;2023-11-19T06:43:19;0.70;;;0.60;;
2652;SDS011;1336;48.692;9.144;2023-11-19T06:44:11;1.20;;;0.60;;
2652;SDS011;1336;48.692;9.144;2023-11-19T06:45:02;1.67;;;0.63;;
2652;SDS011;1336;48.692;9.144;2023-11-19T06:45:56;1.73;;;0.90;;
2652;SDS011;1336;48.692;9.144;2023-11-19T06:46:49;1.53;;;0.93;;
2652;SDS011;1336;48.692;9.144;2023-11-19T06:47:41;1.08;;;0.98;;
2652;SDS011;1336;48.692;9.144;2023-11-19T06:48:31;1.93;;;0.73;;
2652;SDS011;1336;48.692;9.144;2023-11-19T06:49:22;1.00;;;0.80;;
2652;SDS011;1336;48.692;9.144;2023-11-19T06:50:15;0.80;;;0.65;;
2652;SDS011;1336;48.692;9.144;2023-11-19T06:51:06;0.80;;;0.70;;
2652;SDS011;1336;48.692;9.144;2023-11-19T06:51:57;1.20;;;0.87;;
2652;SDS011;1336;48.692;9.144;2023-11-19T06:52:49;0.90;;;0.70;;
2652;SDS011;1336;48.692;9.144;2023-11-19T06:53:40;1.00;;;0.70;;
2652;SDS011;1336;48.692;9.144;2023-11-19T06:54:34;1.00;;;0.60;;
2652;SDS011;1336;48.692;9.144;2023-11-19T06:55:25;0.90;;;0.70;;
2652;SDS011;1336;48.692;9.144;2023-11-19T06:56:20;0.87;;;0.70;;
2652;SDS011;1336;48.692;9.144;2023-11-19T06:57:12;1.83;;;0.88;;
2652;SDS011;1336;48.692;9.144;2023-11-19T06:58:05;0.77;;;0.68;;
2652;SDS011;1336;48.692;9.144;2023-11-19T06:58:57;0.80;;;0.60;;
2652;SDS011;1336;48.692;9.144;2023-11-19T06:59:48;0.70;;;0.52;;
2652;SDS011;1336;48.692;9.144;2023-11-19T07:00:39;1.87;;;0.70;;
2652;SDS011;1336;48.692;9.144;2023-11-19T07:01:34;1.73;;;0.60;;
2652;SDS011;1336;48.692;9.144;2023-11-19T07:02:26;0.80;;;0.57;;
2652;SDS011;1336;48.692;9.144;2023-11-19T07:03:17;0.80;;;0.60;;
2652;SDS011;1336;48.692;9.144;2023-11-19T07:04:10;0.85;;;0.60;;
2652;SDS011;1336;48.692;9.144;2023-11-19T07:05:02;0.80;;;0.70;;
2652;SDS011;1336;48.692;9.144;2023-11-19T07:05:55;2.40;;;0.50;;
2652;SDS011;1336;48.692;9.144;2023-11-19T07:06:46;0.80;;;0.60;;
2652;SDS011;1336;48.692;9.144;2023-11-19T07:07:38;0.80;;;0.60;;
2652;SDS011;1336;48.692;9.144;2023-11-19T07:08:30;1.10;;;0.70;;
2652;SDS011;1336;48.692;9.144;2023-11-19T07:09:21;0.70;;;0.60;;
2652;SDS011;1336;48.692;9.144;2023-11-19T07:10:13;1.02;;;0.70;;
2652;SDS011;1336;48.692;9.144;2023-11-19T07:11:04;0.90;;;0.70;;
2652;SDS011;1336;48.692;9.144;2023-11-19T07:11:54;1.13;;;0.70;;
2652;SDS011;1336;48.692;9.144;2023-11-19T07:12:46;1.63;;;0.70;;
2652;SDS011;1336;48.692;9.144;2023-11-19T07:13:37;0.70;;;0.68;;
2652;SDS011;1336;48.692;9.144;2023-11-19T07:14:28;0.80;;;0.67;;
2652;SDS011;1336;48.692;9.144;2023-11-19T07:15:20;2.03;;;0.70;;
2652;SDS011;1336;48.692;9.144;2023-11-19T07:16:11;0.77;;;0.70;;
2652;SDS011;1336;48.692;9.144;2023-11-19T07:17:03;1.13;;;0.68;;
2652;SDS011;1336;48.692;9.144;2023-11-19T07:17:57;0.90;;;0.70;;
2652;SDS011;1336;48.692;9.144;2023-11-19T07:18:49;0.80;;;0.70;;
2652;SDS011;1336;48.692;9.144;2023-11-19T07:19:40;0.80;;;0.70;;
2652;SDS011;1336;48.692;9.144;2023-11-19T07:20:31;1.38;;;0.80;;
2652;SDS011;1336;48.692;9.144;2023-11-19T07:21:23;2.55;;;0.90;;
2652;SDS011;1336;48.692;9.144;2023-11-19T07:22:13;1.93;;;0.70;;
2652;SDS011;1336;48.692;9.144;2023-11-19T07:23:05;0.70;;;0.60;;
2652;SDS011;1336;48.692;9.144;2023-11-19T07:23:56;0.70;;;0.60;;
2652;SDS011;1336;48.692;9.144;2023-11-19T07:24:47;0.80;;;0.70;;
2652;SDS011;1336;48.692;9.144;2023-11-19T07:25:39;1.55;;;0.70;;
2652;SDS011;1336;48.692;9.144;2023-11-19T07:26:29;1.20;;;0.90;;
2652;SDS011;1336;48.692;9.144;2023-11-19T07:27:20;1.00;;;0.70;;
2652;SDS011;1336;48.692;9.144;2023-11-19T07:28:14;0.70;;;0.60;;
2652;SDS011;1336;48.692;9.144;2023-11-19T07:29:05;0.90;;;0.70;;
2652;SDS011;1336;48.692;9.144;2023-11-19T07:29:57;3.30;;;1.00;;
2652;SDS011;1336;48.692;9.144;2023-11-19T07:30:49;0.80;;;0.65;;
2652;SDS011;1336;48.692;9.144;2023-11-19T07:31:40;1.93;;;0.60;;
2652;SDS011;1336;48.692;9.144;2023-11-19T07:32:31;4.05;;;0.70;;
2652;SDS011;1336;48.692;9.144;2023-11-19T07:33:24;0.73;;;0.60;;
2652;SDS011;1336;48.692;9.144;2023-11-19T07:34:14;0.90;;;0.77;;
2652;SDS011;1336;48.692;9.144;2023-11-19T07:35:06;1.13;;;0.60;;
2652;SDS011;1336;48.692;9.144;2023-11-19T07:35:57;1.23;;;0.60;;
2652;SDS011;1336;48.692;9.144;2023-11-19T07:36:48;1.43;;;0.60;;
2652;SDS011;1336;48.692;9.144;2023-11-19T07:37:40;1.70;;;0.60;;
2652;SDS011;1336;48.692;9.144;2023-11-19T07:38:31;0.70;;;0.60;;
2652;SDS011;1336;48.692;9.144;2023-11-19T07:39:21;0.80;;;0.60;;
2652;SDS011;1336;48.692;9.144;2023-11-19T07:40:13;1.15;;;0.70;;
2652;SDS011;1336;48.692;9.144;2023-11-19T07:41:05;0.70;;;0.57;;
2652;SDS011;1336;48.692;9.144;2023-11-19T07:41:59;0.80;;;0.57;;
2652;SDS011;1336;48.692;9.144;2023-11-19T07:42:50;1.00;;;0.70;;
2652;SDS011;1336;48.692;9.144;2023-11-19T07:43:43;1.42;;;0.70;;
2652;SDS011;1336;48.692;9.144;2023-11-19T07:44:34;1.40;;;0.60;;
2652;SDS011;1336;48.692;9.144;2023-11-19T07:45:25;0.97;;;0.87;;
2652;SDS011;1336;48.692;9.144;2023-11-19T07:46:17;2.45;;;0.60;;
2652;SDS011;1336;48.692;9.144;2023-11-19T07:47:09;1.10;;;0.77;;
2652;SDS011;1336;48.692;9.144;2023-11-19T07:48:00;0.73;;;0.60;;
2652;SDS011;1336;48.692;9.144;2023-11-19T07:48:53;1.77;;;0.60;;
2652;SDS011;1336;48.692;9.144;2023-11-19T07:49:44;0.80;;;0.60;;
2652;SDS011;1336;48.692;9.144;2023-11-19T07:50:35;1.00;;;0.60;;
2652;SDS011;1336;48.692;9.144;2023-11-19T07:51:26;0.93;;;0.55;;
2652;SDS011;1336;48.692;9.144;2023-11-19T07:52:17;0.80;;;0.70;;
2652;SDS011;1336;48.692;9.144;2023-11-19T07:53:09;1.05;;;0.80;;
2652;SDS011;1336;48.692;9.144;2023-11-19T07:54:01;1.95;;;0.63;;
2652;SDS011;1336;48.692;9.144;2023-11-19T07:54:52;1.73;;;0.80;;
2652;SDS011;1336;48.692;9.144;2023-11-19T07:55:44;0.80;;;0.65;;
2652;SDS011;1336;48.692;9.144;2023-11-19T07:56:35;0.90;;;0.70;;
2652;SDS011;1336;48.692;9.144;2023-11-19T07:57:26;0.70;;;0.60;;
2652;SDS011;1336;48.692;9.144;2023-11-19T07:58:20;3.53;;;0.75;;
2652;SDS011;1336;48.692;9.144;2023-11-19T07:59:11;0.70;;;0.50;;
2652;SDS011;1336;48.692;9.144;2023-11-19T08:00:02;0.70;;;0.50;;
2652;SDS011;1336;48.692;9.144;2023-11-19T08:00:54;1.10;;;0.60;;
2652;SDS011;1336;48.692;9.144;2023-11-19T08:01:45;1.20;;;0.60;;
2652;SDS011;1336;48.692;9.144;2023-11-19T08:02:35;1.40;;;0.80;;
2652;SDS011;1336;48.692;9.144;2023-11-19T08:03:27;1.50;;;0.65;;
2652;SDS011;1336;48.692;9.144;2023-11-19T08:04:20;1.10;;;0.63;;
2652;SDS011;1336;48.692;9.144;2023-11-19T08:05:12;0.80;;;0.70;;
2652;SDS011;1336;48.692;9.144;2023-11-19T08:06:03;0.70;;;0.60;;
2652;SDS011;1336;48.692;9.144;2023-11-19T08:06:57;0.70;;;0.50;;
2652;SDS011;1336;48.692;9.144;2023-11-19T08:07:47;0.80;;;0.60;;
2652;SDS011;1336;48.692;9.144;2023-11-19T08:08:38;1.30;;;0.63;;
2652;SDS011;1336;48.692;9.144;2023-11-19T08:09:30;0.80;;;0.70;;
2652;SDS011;1336;48.692;9.144;2023-11-19T08:10:21;0.70;;;0.52;;
2652;SDS011;1336;48.692;9.144;2023-11-19T08:11:13;1.00;;;0.60;;
2652;SDS011;1336;48.692;9.144;2023-11-19T08:12:05;1.70;;;0.70;;
2652;SDS011;1336;48.692;9.144;2023-11-19T08:12:58;1.33;;;0.75;;
2652;SDS011;1336;48.692;9.144;2023-11-19T08:13:49;0.70;;;0.50;;
2652;SDS011;1336;48.692;9.144;2023-11-19T08:14:41;1.60;;;0.60;;
2652;SDS011;1336;48.692;9.144;2023-11-19T08:15:32;1.00;;;0.50;;
2652;SDS011;1336;48.692;9.144;2023-11-19T08:16:22;0.90;;;0.53;;
2652;SDS011;1336;48.692;9.144;2023-11-19T08:17:14;0.93;;;0.60;;
2652;SDS011;1336;48.692;9.144;2023-11-19T08:18:06;0.75;;;0.60;;
2652;SDS011;1336;48.692;9.144;2023-11-19T08:18:57;0.70;;;0.50;;
2652;SDS011;1336;48.692;9.144;2023-11-19T08:19:50;0.70;;;0.68;;
2652;SDS011;1336;48.692;9.144;2023-11-19T08:20:41;1.45;;;0.60;;
2652;SDS011;1336;48.692;9.144;2023-11-19T08:21:34;1.55;;;0.55;;
2652;SDS011;1336;48.692;9.144;2023-11-19T08:22:25;1.13;;;0.60;;
2652;SDS011;1336;48.692;9.144;2023-11-19T08:23:17;0.90;;;0.45;;
2652;SDS011;1336;48.692;9.144;2023-11-19T08:24:09;0.70;;;0.60;;
2652;SDS011;1336;48.692;9.144;2023-11-19T08:25:00;0.80;;;0.50;;
2652;SDS011;1336;48.692;9.144;2023-11-19T08:25:51;1.40;;;0.80;;
2652;SDS011;1336;48.692;9.144;2023-11-19T08:26:42;1.10;;;0.60;;
2652;SDS011;1336;48.692;9.144;2023-11-19T08:27:33;0.80;;;0.60;;
2652;SDS011;1336;48.692;9.144;2023-11-19T08:28:25;3.35;;;0.80;;
2652;SDS011;1336;48.692;9.144;2023-11-19T08:29:16;1.10;;;0.60;;
2652;SDS011;1336;48.692;9.144;2023-11-19T08:30:07;2.60;;;0.80;;
2652;SDS011;1336;48.692;9.144;2023-11-19T08:30:59;1.00;;;0.60;;
2652;SDS011;1336;48.692;9.144;2023-11-19T08:31:50;1.73;;;0.60;;
2652;SDS011;1336;48.692;9.144;2023-11-19T08:32:41;1.30;;;0.60;;
2652;SDS011;1336;48.692;9.144;2023-11-19T08:33:32;1.65;;;0.68;;
2652;SDS011;1336;48.692;9.144;2023-11-19T08:34:23;0.70;;;0.60;;
2652;SDS011;1336;48.692;9.144;2023-11-19T08:35:16;0.80;;;0.60;;
2652;SDS011;1336;48.692;9.144;2023-11-19T08:36:08;0.75;;;0.50;;
2652;SDS011;1336;48.692;9.144;2023-11-19T08:36:59;0.75;;;0.60;;
2652;SDS011;1336;48.692;9.144;2023-11-19T08:37:49;0.80;;;0.67;;
2652;SDS011;1336;48.692;9.144;2023-11-19T08:38:42;1.75;;;0.70;;
2652;SDS011;1336;48.692;9.144;2023-11-19T08:39:33;4.90;;;0.60;;
2652;SDS011;1336;48.692;9.144;2023-11-19T08:40:25;1.30;;;0.70;;
2652;SDS011;1336;48.692;9.144;2023-11-19T08:41:16;1.47;;;0.70;;
2652;SDS011;1336;48.692;9.144;2023-11-19T08:42:07;0.98;;;0.80;;
2652;SDS011;1336;48.692;9.144;2023-11-19T08:42:58;1.83;;;0.70;;
2652;SDS011;1336;48.692;9.144;2023-11-19T08:43:49;1.03;;;0.80;;
2652;SDS011;1336;48.692;9.144;2023-11-19T08:44:41;1.80;;;0.60;;
2652;SDS011;1336;48.692;9.144;2023-11-19T08:45:34;1.83;;;0.65;;
2652;SDS011;1336;48.692;9.144;2023-11-19T08:46:24;1.00;;;0.60;;
2652;SDS011;1336;48.692;9.144;2023-11-19T08:47:16;0.90;;;0.60;;
2652;SDS011;1336;48.692;9.144;2023-11-19T08:48:08;1.00;;;0.60;;
2652;SDS011;1336;48.692;9.144;2023-11-19T08:48:58;1.10;;;0.70;;
2652;SDS011;1336;48.692;9.144;2023-11-19T08:49:50;2.10;;;0.60;;
2652;SDS011;1336;48.692;9.144;2023-11-19T08:50:43;0.80;;;0.60;;
2652;SDS011;1336;48.692;9.144;2023-11-19T08:51:35;0.80;;;0.60;;
2652;SDS011;1336;48.692;9.144;2023-11-19T08:52:26;1.37;;;0.70;;
2652;SDS011;1336;48.692;9.144;2023-11-19T08:53:17;1.90;;;0.70;;
2652;SDS011;1336;48.692;9.144;2023-11-19T08:54:08;1.37;;;0.70;;
2652;SDS011;1336;48.692;9.144;2023-11-19T08:55:00;1.08;;;0.70;;
2652;SDS011;1336;48.692;9.144;2023-11-19T08:55:51;0.80;;;0.60;;
2652;SDS011;1336;48.692;9.144;2023-11-19T08:56:43;1.17;;;0.70;;
2652;SDS011;1336;48.692;9.144;2023-11-19T08:57:33;1.87;;;0.70;;
2652;SDS011;1336;48.692;9.144;2023-11-19T08:58:25;1.05;;;0.60;;
2652;SDS011;1336;48.692;9.144;2023-11-19T08:59:16;1.57;;;0.70;;
2652;SDS011;1336;48.692;9.144;2023-11-19T09:00:07;1.08;;;0.70;;
2652;SDS011;1336;48.692;9.144;2023-11-19T09:00:59;1.35;;;0.60;;
2652;SDS011;1336;48.692;9.144;2023-11-19T09:01:50;0.80;;;0.60;;
2652;SDS011;1336;48.692;9.144;2023-11-19T09:02:42;0.80;;;0.70;;
2652;SDS011;1336;48.692;9.144;2023-11-19T09:03:33;3.60;;;0.70;;
2652;SDS011;1336;48.692;9.144;2023-11-19T09:04:24;2.05;;;0.70;;
2652;SDS011;1336;48.692;9.144;2023-11-19T09:05:15;1.10;;;0.60;;
2652;SDS011;1336;48.692;9.144;2023-11-19T09:06:08;0.90;;;0.60;;
2652;SDS011;1336;48.692;9.144;2023-11-19T09:06:59;1.10;;;0.70;;
2652;SDS011;1336;48.692;9.144;2023-11-19T09:07:50;1.90;;;0.70;;
2652;SDS011;1336;48.692;9.144;2023-11-19T09:08:41;2.00;;;0.80;;
2652;SDS011;1336;48.692;9.144;2023-11-19T09:09:32;2.70;;;0.70;;
2652;SDS011;1336;48.692;9.144;2023-11-19T09:10:25;0.80;;;0.60;;
2652;SDS011;1336;48.692;9.144;2023-11-19T09:11:19;2.15;;;0.68;;
2652;SDS011;1336;48.692;9.144;2023-11-19T09:12:10;3.50;;;0.80;;
2652;SDS011;1336;48.692;9.144;2023-11-19T09:13:01;1.38;;;0.80;;
2652;SDS011;1336;48.692;9.144;2023-11-19T09:13:52;0.87;;;0.60;;
2652;SDS011;1336;48.692;9.144;2023-11-19T09:14:43;0.93;;;0.67;;
2652;SDS011;1336;48.692;9.144;2023-11-19T09:15:35;1.10;;;0.60;;
2652;SDS011;1336;48.692;9.144;2023-11-19T09:16:26;1.07;;;0.60;;
2652;SDS011;1336;48.692;9.144;2023-11-19T09:17:17;0.70;;;0.60;;
2652;SDS011;1336;48.692;9.144;2023-11-19T09:18:09;0.90;;;0.60;;
2652;SDS011;1336;48.692;9.144;2023-11-19T09:18:59;2.60;;;0.77;;
2652;SDS011;1336;48.692;9.144;2023-11-19T09:19:52;1.35;;;0.63;;
2652;SDS011;1336;48.692;9.144;2023-11-19T09:20:43;0.90;;;0.60;;
2652;SDS011;1336;48.692;9.144;2023-11-19T09:21:36;4.88;;;0.70;;
2652;SDS011;1336;48.692;9.144;2023-11-19T09:22:28;1.55;;;0.75;;
2652;SDS011;1336;48.692;9.144;2023-11-19T09:23:19;0.80;;;0.70;;
2652;SDS011;1336;48.692;9.144;2023-11-19T09:24:11;0.80;;;0.70;;
2652;SDS011;1336;48.692;9.144;2023-11-19T09:25:01;0.80;;;0.60;;
2652;SDS011;1336;48.692;9.144;2023-11-19T09:25:55;0.90;;;0.60;;
2652;SDS011;1336;48.692;9.144;2023-11-19T09:26:45;1.30;;;0.70;;
2652;SDS011;1336;48.692;9.144;2023-11-19T09:27:36;2.67;;;0.97;;
2652;SDS011;1336;48.692;9.144;2023-11-19T09:28:28;0.98;;;0.70;;
2652;SDS011;1336;48.692;9.144;2023-11-19T09:29:19;4.07;;;0.83;;
2652;SDS011;1336;48.692;9.144;2023-11-19T09:30:12;1.23;;;0.60;;
2652;SDS011;1336;48.692;9.144;2023-11-19T09:31:03;1.13;;;0.80;;
2652;SDS011;1336;48.692;9.144;2023-11-19T09:32:02;1.88;;;0.70;;
2652;SDS011;1336;48.692;9.144;2023-11-19T09:32:54;0.90;;;0.70;;
2652;SDS011;1336;48.692;9.144;2023-11-19T09:33:45;1.40;;;0.70;;
2652;SDS011;1336;48.692;9.144;2023-11-19T09:34:36;0.80;;;0.60;;
2652;SDS011;1336;48.692;9.144;2023-11-19T09:35:27;1.95;;;0.60;;
2652;SDS011;1336;48.692;9.144;2023-11-19T09:36:18;1.17;;;0.60;;
2652;SDS011;1336;48.692;9.144;2023-11-19T09:37:10;1.47;;;0.70;;
2652;SDS011;1336;48.692;9.144;2023-11-19T09:38:02;2.65;;;0.75;;
2652;SDS011;1336;48.692;9.144;2023-11-19T09:38:55;0.80;;;0.50;;
2652;SDS011;1336;48.692;9.144;2023-11-19T09:39:46;3.07;;;1.67;;
2652;SDS011;1336;48.692;9.144;2023-11-19T09:40:37;2.60;;;0.80;;
2652;SDS011;1336;48.692;9.144;2023-11-19T09:41:29;0.95;;;0.60;;
2652;SDS011;1336;48.692;9.144;2023-11-19T09:42:21;1.33;;;0.73;;
2652;SDS011;1336;48.692;9.144;2023-11-19T09:43:14;1.42;;;0.80;;
2652;SDS011;1336;48.692;9.144;2023-11-19T09:44:06;1.17;;;0.80;;
2652;SDS011;1336;48.692;9.144;2023-11-19T09:44:58;1.00;;;0.60;;
2652;SDS011;1336;48.692;9.144;2023-11-19T09:45:51;0.80;;;0.60;;
2652;SDS011;1336;48.692;9.144;2023-11-19T09:46:43;1.20;;;0.60;;
2652;SDS011;1336;48.692;9.144;2023-11-19T09:47:35;1.73;;;0.60;;
2652;SDS011;1336;48.692;9.144;2023-11-19T09:48:27;0.95;;;0.60;;
2652;SDS011;1336;48.692;9.144;2023-11-19T09:49:19;3.65;;;0.70;;
2652;SDS011;1336;48.692;9.144;2023-11-19T09:50:14;1.05;;;0.60;;
2652;SDS011;1336;48.692;9.144;2023-11-19T09:51:09;2.25;;;0.60;;
2652;SDS011;1336;48.692;9.144;2023-11-19T09:52:00;2.05;;;0.70;;
2652;SDS011;1336;48.692;9.144;2023-11-19T09:52:54;1.73;;;0.80;;
2652;SDS011;1336;48.692;9.144;2023-11-19T09:53:44;1.35;;;0.60;;
2652;SDS011;1336;48.692;9.144;2023-11-19T09:54:36;0.80;;;0.70;;
2652;SDS011;1336;48.692;9.144;2023-11-19T09:55:27;1.17;;;0.93;;
2652;SDS011;1336;48.692;9.144;2023-11-19T09:56:19;1.48;;;0.60;;
2652;SDS011;1336;48.692;9.144;2023-11-19T09:57:10;1.03;;;0.50;;
2652;SDS011;1336;48.692;9.144;2023-11-19T09:58:05;1.67;;;0.60;;
2652;SDS011;1336;48.692;9.144;2023-11-19T09:58:57;0.70;;;0.60;;
2652;SDS011;1336;48.692;9.144;2023-11-19T09:59:50;0.70;;;0.50;;
2652;SDS011;1336;48.692;9.144;2023-11-19T10:00:43;0.93;;;0.60;;
2652;SDS011;1336;48.692;9.144;2023-11-19T10:01:34;0.83;;;0.50;;
2652;SDS011;1336;48.692;9.144;2023-11-19T10:02:27;0.80;;;0.60;;
2652;SDS011;1336;48.692;9.144;2023-11-19T10:03:25;0.90;;;0.70;;
2652;SDS011;1336;48.692;9.144;2023-11-19T10:04:21;0.77;;;0.60;;
2652;SDS011;1336;48.692;9.144;2023-11-19T10:05:13;5.50;;;4.18;;
2652;SDS011;1336;48.692;9.144;2023-11-19T10:06:07;3.72;;;3.35;;
2652;SDS011;1336;48.692;9.144;2023-11-19T10:06:58;1.38;;;1.27;;
2652;SDS011;1336;48.692;9.144;2023-11-19T10:07:50;3.45;;;2.65;;
2652;SDS011;1336;48.692;9.144;2023-11-19T10:08:42;4.57;;;4.00;;
2652;SDS011;1336;48.692;9.144;2023-11-19T10:09:34;2.97;;;2.70;;
2652;SDS011;1336;48.692;9.144;2023-11-19T10:10:25;3.88;;;2.60;;
2652;SDS011;1336;48.692;9.144;2023-11-19T10:11:17;4.40;;;3.03;;
2652;SDS011;1336;48.692;9.144;2023-11-19T10:12:08;4.20;;;3.30;;
2652;SDS011;1336;48.692;9.144;2023-11-19T10:13:00;7.38;;;6.68;;
2652;SDS011;1336;48.692;9.144;2023-11-19T10:13:52;3.50;;;3.17;;
2652;SDS011;1336;48.692;9.144;2023-11-19T10:14:45;2.78;;;2.08;;
2652;SDS011;1336;48.692;9.144;2023-11-19T10:15:38;3.13;;;2.83;;
2652;SDS011;1336;48.692;9.144;2023-11-19T10:16:30;2.20;;;2.00;;
2652;SDS011;1336;48.692;9.144;2023-11-19T10:17:27;1.80;;;1.50;;
2652;SDS011;1336;48.692;9.144;2023-11-19T10:18:23;3.45;;;2.15;;
2652;SDS011;1336;48.692;9.144;2023-11-19T10:19:18;3.00;;;1.95;;
2652;SDS011;1336;48.692;9.144;2023-11-19T10:20:10;6.22;;;2.35;;
2652;SDS011;1336;48.692;9.144;2023-11-19T10:21:03;1.92;;;1.27;;
2652;SDS011;1336;48.692;9.144;2023-11-19T10:21:56;2.70;;;1.45;;
2652;SDS011;1336;48.692;9.144;2023-11-19T10:22:52;1.40;;;1.00;;
2652;SDS011;1336;48.692;9.144;2023-11-19T10:23:50;2.05;;;1.40;;
2652;SDS011;1336;48.692;9.144;2023-11-19T10:24:43;2.25;;;1.92;;
2652;SDS011;1336;48.692;9.144;2023-11-19T10:25:34;0.90;;;0.80;;
2652;SDS011;1336;48.692;9.144;2023-11-19T10:26:26;4.67;;;1.17;;
2652;SDS011;1336;48.692;9.144;2023-11-19T10:27:18;2.33;;;2.05;;
2652;SDS011;1336;48.692;9.144;2023-11-19T10:28:09;2.53;;;1.83;;
2652;SDS011;1336;48.692;9.144;2023-11-19T10:29:00;2.30;;;2.10;;
2652;SDS011;1336;48.692;9.144;2023-11-19T10:29:52;2.60;;;1.75;;
2652;SDS011;1336;48.692;9.144;2023-11-19T10:30:43;2.90;;;1.77;;
2652;SDS011;1336;48.692;9.144;2023-11-19T10:31:35;5.82;;;2.63;;
2652;SDS011;1336;48.692;9.144;2023-11-19T10:32:27;4.47;;;3.50;;
2652;SDS011;1336;48.692;9.144;2023-11-19T10:33:18;4.97;;;4.30;;
2652;SDS011;1336;48.692;9.144;2023-11-19T10:34:23;3.88;;;2.60;;
2652;SDS011;1336;48.692;9.144;2023-11-19T10:35:16;4.32;;;3.95;;
2652;SDS011;1336;48.692;9.144;2023-11-19T10:36:08;3.58;;;2.58;;
2652;SDS011;1336;48.692;9.144;2023-11-19T10:36:59;2.43;;;2.23;;
2652;SDS011;1336;48.692;9.144;2023-11-19T10:37:54;4.45;;;2.53;;
2652;SDS011;1336;48.692;9.144;2023-11-19T10:38:53;2.57;;;2.37;;
2652;SDS011;1336;48.692;9.144;2023-11-19T10:39:51;2.25;;;1.67;;
2652;SDS011;1336;48.692;9.144;2023-11-19T10:40:44;4.07;;;1.80;;
2652;SDS011;1336;48.692;9.144;2023-11-19T10:41:35;2.00;;;1.10;;
2652;SDS011;1336;48.692;9.144;2023-11-19T10:42:27;2.95;;;2.63;;
2652;SDS011;1336;48.692;9.144;2023-11-19T10:43:18;1.10;;;1.00;;
2652;SDS011;1336;48.692;9.144;2023-11-19T10:44:09;5.28;;;4.75;;
2652;SDS011;1336;48.692;9.144;2023-11-19T10:45:04;7.55;;;6.93;;
2652;SDS011;1336;48.692;9.144;2023-11-19T10:46:12;5.32;;;4.82;;
2652;SDS011;1336;48.692;9.144;2023-11-19T10:47:05;5.93;;;5.35;;
2652;SDS011;1336;48.692;9.144;2023-11-19T10:47:58;6.25;;;5.13;;
2652;SDS011;1336;48.692;9.144;2023-11-19T10:48:49;2.30;;;2.10;;
2652;SDS011;1336;48.692;9.144;2023-11-19T10:49:41;3.83;;;2.35;;
2652;SDS011;1336;48.692;9.144;2023-11-19T10:50:32;2.53;;;1.97;;
2652;SDS011;1336;48.692;9.144;2023-11-19T10:51:24;3.15;;;2.80;;
2652;SDS011;1336;48.692;9.144;2023-11-19T10:52:17;2.53;;;1.70;;
2652;SDS011;1336;48.692;9.144;2023-11-19T10:53:09;2.75;;;2.13;;
2652;SDS011;1336;48.692;9.144;2023-11-19T10:54:05;3.85;;;3.35;;
2652;SDS011;1336;48.692;9.144;2023-11-19T10:54:56;2.28;;;2.08;;
2652;SDS011;1336;48.692;9.144;2023-11-19T10:55:50;4.28;;;2.85;;
2652;SDS011;1336;48.692;9.144;2023-11-19T10:56:43;5.18;;;3.80;;
2652;SDS011;1336;48.692;9.144;2023-11-19T10:57:36;4.70;;;3.75;;
2652;SDS011;1336;48.692;9.144;2023-11-19T10:58:32;12.80;;;11.65;;
2652;SDS011;1336;48.692;9.144;2023-11-19T10:59:25;12.07;;;10.93;;
2652;SDS011;1336;48.692;9.144;2023-11-19T11:00:20;6.60;;;6.00;;
2652;SDS011;1336;48.692;9.144;2023-11-19T11:01:20;3.92;;;3.60;;
2652;SDS011;1336;48.692;9.144;2023-11-19T11:02:13;3.05;;;2.83;;
2652;SDS011;1336;48.692;9.144;2023-11-19T11:03:11;6.97;;;6.40;;
2652;SDS011;1336;48.692;9.144;2023-11-19T11:04:06;2.78;;;2.20;;
2652;SDS011;1336;48.692;9.144;2023-11-19T11:05:05;3.15;;;2.03;;
2652;SDS011;1336;48.692;9.144;2023-11-19T11:05:57;2.90;;;2.63;;
2652;SDS011;1336;48.692;9.144;2023-11-19T11:06:49;5.70;;;5.20;;
2652;SDS011;1336;48.692;9.144;2023-11-19T11:07:41;5.00;;;3.90;;
2652;SDS011;1336;48.692;9.144;2023-11-19T11:08:34;1.13;;;0.90;;
2652;SDS011;1336;48.692;9.144;2023-11-19T11:09:29;0.85;;;0.65;;
2652;SDS011;1336;48.692;9.144;2023-11-19T11:10:23;1.65;;;1.55;;
2652;SDS011;1336;48.692;9.144;2023-11-19T11:11:16;1.00;;;0.90;;
2652;SDS011;1336;48.692;9.144;2023-11-19T11:12:11;1.50;;;0.82;;
2652;SDS011;1336;48.692;9.144;2023-11-19T11:13:02;3.30;;;2.63;;
2652;SDS011;1336;48.692;9.144;2023-11-19T11:13:53;2.05;;;1.70;;
2652;SDS011;1336;48.692;9.144;2023-11-19T11:14:47;2.17;;;1.35;;
2652;SDS011;1336;48.692;9.144;2023-11-19T11:15:38;2.50;;;2.20;;
2652;SDS011;1336;48.692;9.144;2023-11-19T11:16:29;2.10;;;1.20;;
2652;SDS011;1336;48.692;9.144;2023-11-19T11:17:21;2.05;;;1.25;;
2652;SDS011;1336;48.692;9.144;2023-11-19T11:18:16;1.90;;;1.30;;
2652;SDS011;1336;48.692;9.144;2023-11-19T11:19:07;3.50;;;2.10;;
2652;SDS011;1336;48.692;9.144;2023-11-19T11:19:59;3.53;;;1.38;;
2652;SDS011;1336;48.692;9.144;2023-11-19T11:20:51;1.85;;;1.20;;
2652;SDS011;1336;48.692;9.144;2023-11-19T11:21:46;1.60;;;1.17;;
2652;SDS011;1336;48.692;9.144;2023-11-19T11:22:44;1.50;;;1.30;;
2652;SDS011;1336;48.692;9.144;2023-11-19T11:23:59;1.27;;;1.10;;